Time;durP1;ratioP1;P1;durP2;ratioP2;P2;SDS_P1;SDS_P2;PMS_P1;PMS_P2;Temp;Humidity;BMP_temperature;BMP_pressure;BME280_temperature;BME280_humidity;BME280_pressure;Samples;Min_cycle;Max_cycle;Signal;HPM_P1;HPM_P2
2021/03/04 00:00:02;;;;;;;4.07;2.10;;;;;;;;;;5071848;28;20094;-76
2021/03/04 00:02:27;;;;;;;5.43;2.17;;;;;;;;;;5063946;28;20032;-75
2021/03/04 00:04:53;;;;;;;4.97;2.20;;;;;;;;;;5071612;28;20036;-75
2021/03/04 00:07:18;;;;;;;3.83;1.97;;;;;;;;;;5063079;28;20108;-75
2021/03/04 00:09:43;;;;;;;3.27;1.90;;;;;;;;;;5052493;28;20061;-75
2021/03/04 00:12:09;;;;;;;3.93;2.00;;;;;;;;;;5055238;28;20080;-76
2021/03/04 00:14:34;;;;;;;3.37;1.93;;;;;;;;;;5069716;28;20123;-75
2021/03/04 00:17:00;;;;;;;3.33;1.97;;;;;;;;;;5054975;28;20112;-76
2021/03/04 00:19:25;;;;;;;4.10;2.23;;;;;;;;;;5050906;28;20042;-75
2021/03/04 00:21:50;;;;;;;4.80;2.30;;;;;;;;;;5032872;28;20075;-75
2021/03/04 00:24:16;;;;;;;3.23;1.90;;;;;;;;;;5003842;28;20029;-75
2021/03/04 00:26:41;;;;;;;4.13;2.13;;;;;;;;;;5053639;28;20044;-75
2021/03/04 00:29:07;;;;;;;4.00;2.20;;;;;;;;;;5054937;28;20115;-75
2021/03/04 00:31:32;;;;;;;4.57;2.30;;;;;;;;;;5071515;28;20063;-76
2021/03/04 00:33:57;;;;;;;3.70;2.10;;;;;;;;;;5055117;28;20048;-76
2021/03/04 00:36:23;;;;;;;4.63;2.40;;;;;;;;;;5069157;28;20502;-75
2021/03/04 00:38:48;;;;;;;4.73;2.30;;;;;;;;;;5060341;28;20071;-76
2021/03/04 00:41:13;;;;;;;3.73;2.13;;;;;;;;;;5064808;28;20067;-75
2021/03/04 00:43:39;;;;;;;5.03;2.20;;;;;;;;;;5074505;28;20056;-75
2021/03/04 00:46:04;;;;;;;4.60;2.20;;;;;;;;;;5055740;28;20434;-76
2021/03/04 00:48:29;;;;;;;3.87;1.90;;;;;;;;;;5055394;28;20534;-76
2021/03/04 00:50:55;;;;;;;3.87;2.30;;;;;;;;;;5055205;28;20543;-75
2021/03/04 00:53:20;;;;;;;3.90;2.07;;;;;;;;;;5065886;28;20395;-75
2021/03/04 00:55:46;;;;;;;5.00;2.20;;;;;;;;;;5044493;28;20048;-75
2021/03/04 00:58:11;;;;;;;3.93;2.33;;;;;;;;;;5058837;28;20060;-76
2021/03/04 01:00:36;;;;;;;3.97;2.13;;;;;;;;;;5047475;28;20076;-75
2021/03/04 01:03:02;;;;;;;3.53;1.90;;;;;;;;;;5055001;28;20032;-75
2021/03/04 01:05:27;;;;;;;5.43;2.40;;;;;;;;;;5030574;28;20080;-76
2021/03/04 01:07:53;;;;;;;3.53;2.17;;;;;;;;;;5047009;28;20120;-75
2021/03/04 01:10:34;;;;;;;4.30;2.17;;;;;;;;;;5057721;28;20430;-75
2021/03/04 01:13:00;;;;;;;3.88;2.10;;;;;;;;;;5050538;28;20387;-75
2021/03/04 01:15:25;;;;;;;4.30;2.27;;;;;;;;;;5066869;28;20046;-75
2021/03/04 01:17:51;;;;;;;3.93;2.30;;;;;;;;;;5074401;28;20075;-75
2021/03/04 01:20:16;;;;;;;4.37;2.20;;;;;;;;;;5074296;28;20044;-74
2021/03/04 01:22:42;;;;;;;4.53;2.03;;;;;;;;;;5054889;28;20059;-75
2021/03/04 01:25:08;;;;;;;4.57;2.20;;;;;;;;;;5038050;28;20037;-75
2021/03/04 01:27:33;;;;;;;4.57;2.03;;;;;;;;;;5037916;28;20040;-75
2021/03/04 01:29:59;;;;;;;3.23;1.70;;;;;;;;;;5069869;28;20033;-75
2021/03/04 01:32:24;;;;;;;3.60;2.17;;;;;;;;;;5054833;28;20119;-75
2021/03/04 01:34:49;;;;;;;4.43;2.13;;;;;;;;;;5058808;28;20133;-75
2021/03/04 01:37:15;;;;;;;4.23;2.30;;;;;;;;;;5074392;28;20157;-75
2021/03/04 01:39:40;;;;;;;4.27;2.30;;;;;;;;;;5074256;28;20479;-76
2021/03/04 01:42:06;;;;;;;4.57;2.10;;;;;;;;;;5066069;28;20509;-75
2021/03/04 01:44:31;;;;;;;3.73;1.93;;;;;;;;;;5051035;28;20044;-75
2021/03/04 01:46:56;;;;;;;3.97;2.07;;;;;;;;;;5057474;28;20123;-76
2021/03/04 01:49:22;;;;;;;3.17;1.90;;;;;;;;;;5046259;28;20112;-75
2021/03/04 01:51:47;;;;;;;5.07;2.30;;;;;;;;;;5037084;28;20040;-76
2021/03/04 01:54:12;;;;;;;3.97;2.03;;;;;;;;;;5025134;28;20119;-75
2021/03/04 01:56:38;;;;;;;3.80;1.90;;;;;;;;;;5058035;28;20550;-76
2021/03/04 01:59:03;;;;;;;4.47;2.13;;;;;;;;;;5074058;28;20470;-75
2021/03/04 02:02:00;;;;;;;3.57;1.90;;;;;;;;;;5074788;28;20118;-75
2021/03/04 02:04:25;;;;;;;3.35;1.95;;;;;;;;;;5071754;28;20079;-75
2021/03/04 02:07:09;;;;;;;4.97;2.43;;;;;;;;;;5067958;28;20133;-75
2021/03/04 02:09:34;;;;;;;3.97;2.15;;;;;;;;;;5063106;28;20532;-75
2021/03/04 02:12:05;;;;;;;3.23;1.90;;;;;;;;;;5070170;28;20037;-75
2021/03/04 02:14:32;;;;;;;4.68;2.03;;;;;;;;;;5021056;28;20037;-76
2021/03/04 02:17:04;;;;;;;3.97;2.20;;;;;;;;;;5053732;28;20602;-75
2021/03/04 02:19:32;;;;;;;4.35;2.20;;;;;;;;;;5050499;28;20080;-75
2021/03/04 02:22:15;;;;;;;4.22;2.00;;;;;;;;;;5067064;28;20033;-75
2021/03/04 02:25:07;;;;;;;3.60;2.10;;;;;;;;;;5060234;28;20039;-76
2021/03/04 02:27:32;;;;;;;3.88;1.98;;;;;;;;;;5073205;28;20028;-75
2021/03/04 02:30:08;;;;;;;3.37;2.03;;;;;;;;;;5056739;28;20500;-75
2021/03/04 02:32:34;;;;;;;4.28;2.03;;;;;;;;;;5068579;28;20036;-74
2021/03/04 02:35:26;;;;;;;4.47;2.13;;;;;;;;;;5016932;28;20111;-75
2021/03/04 02:38:02;;;;;;;3.78;2.08;;;;;;;;;;5057455;28;20036;-75
2021/03/04 02:40:30;;;;;;;3.57;2.07;;;;;;;;;;5057134;28;20029;-76
2021/03/04 02:42:55;;;;;;;4.07;2.10;;;;;;;;;;5040213;28;20147;-75
2021/03/04 02:45:21;;;;;;;3.57;1.90;;;;;;;;;;5045427;28;20532;-75
2021/03/04 02:47:46;;;;;;;5.32;2.17;;;;;;;;;;5049854;28;20487;-75
2021/03/04 02:50:12;;;;;;;4.23;2.17;;;;;;;;;;5056256;28;20116;-75
2021/03/04 02:52:37;;;;;;;5.37;2.30;;;;;;;;;;5060309;28;20555;-75
2021/03/04 02:55:03;;;;;;;4.27;1.90;;;;;;;;;;5052889;28;20033;-75
2021/03/04 02:57:29;;;;;;;4.35;2.17;;;;;;;;;;5052707;28;20033;-75
2021/03/04 02:59:54;;;;;;;4.20;1.90;;;;;;;;;;5053919;28;20044;-76
2021/03/04 03:02:20;;;;;;;3.40;1.73;;;;;;;;;;5036501;28;20094;-76
2021/03/04 03:04:45;;;;;;;3.77;2.10;;;;;;;;;;5050093;28;20063;-75
2021/03/04 03:07:10;;;;;;;4.67;2.33;;;;;;;;;;5044879;28;20387;-75
2021/03/04 03:09:39;;;;;;;4.03;2.03;;;;;;;;;;5055915;28;20119;-75
2021/03/04 03:12:06;;;;;;;4.25;2.10;;;;;;;;;;5055952;28;20028;-76
2021/03/04 03:14:31;;;;;;;3.72;1.98;;;;;;;;;;5050949;28;20403;-75
2021/03/04 03:16:58;;;;;;;4.10;2.07;;;;;;;;;;5059919;28;20028;-75
2021/03/04 03:19:24;;;;;;;4.20;2.13;;;;;;;;;;5055578;28;20484;-75
2021/03/04 03:21:49;;;;;;;3.70;2.00;;;;;;;;;;5022923;28;20090;-75
2021/03/04 03:24:15;;;;;;;4.40;2.30;;;;;;;;;;5052375;28;20080;-75
2021/03/04 03:26:40;;;;;;;3.33;2.00;;;;;;;;;;5071678;28;20107;-75
2021/03/04 03:29:05;;;;;;;3.83;2.00;;;;;;;;;;5038691;28;20127;-75
2021/03/04 03:31:31;;;;;;;3.27;1.90;;;;;;;;;;5055526;28;20068;-75
2021/03/04 03:33:56;;;;;;;4.17;2.03;;;;;;;;;;5053450;28;20060;-74
2021/03/04 03:36:22;;;;;;;4.77;2.40;;;;;;;;;;5035605;28;20369;-76
2021/03/04 03:38:47;;;;;;;3.13;1.93;;;;;;;;;;5035608;28;20075;-76
2021/03/04 03:41:12;;;;;;;4.20;2.13;;;;;;;;;;5035391;28;20107;-76
2021/03/04 03:43:38;;;;;;;3.63;2.07;;;;;;;;;;5019548;28;20477;-75
2021/03/04 03:46:03;;;;;;;3.40;2.10;;;;;;;;;;5035482;28;20154;-76
2021/03/04 03:48:29;;;;;;;4.10;2.30;;;;;;;;;;5035532;28;20683;-76
2021/03/04 03:50:55;;;;;;;3.80;2.07;;;;;;;;;;5044611;28;20102;-76
2021/03/04 03:53:20;;;;;;;4.35;1.92;;;;;;;;;;5055035;28;20036;-76
2021/03/04 03:55:49;;;;;;;5.13;2.00;;;;;;;;;;5017195;28;20095;-76
2021/03/04 03:58:22;;;;;;;4.18;2.30;;;;;;;;;;5047011;28;20029;-76
2021/03/04 04:00:48;;;;;;;3.72;2.03;;;;;;;;;;5052034;28;20041;-76
2021/03/04 04:03:13;;;;;;;3.80;2.00;;;;;;;;;;5051700;28;20117;-76
2021/03/04 04:05:38;;;;;;;3.17;1.80;;;;;;;;;;5065962;28;20036;-76
2021/03/04 04:08:04;;;;;;;3.30;1.73;;;;;;;;;;5045019;28;20559;-75
2021/03/04 04:10:31;;;;;;;3.83;1.80;;;;;;;;;;5070264;28;20033;-75
2021/03/04 04:12:57;;;;;;;3.67;2.10;;;;;;;;;;5055417;28;20262;-75
2021/03/04 04:15:22;;;;;;;3.17;1.90;;;;;;;;;;5056248;28;20151;-74
2021/03/04 04:17:48;;;;;;;3.47;2.07;;;;;;;;;;5021028;28;20465;-74
2021/03/04 04:20:14;;;;;;;4.63;1.90;;;;;;;;;;5059349;28;20491;-74
2021/03/04 04:22:39;;;;;;;4.30;2.13;;;;;;;;;;5075730;28;20031;-74
2021/03/04 04:25:05;;;;;;;4.63;1.93;;;;;;;;;;5057014;28;20043;-74
2021/03/04 04:27:30;;;;;;;3.73;1.90;;;;;;;;;;5056689;28;20048;-74
2021/03/04 04:29:56;;;;;;;4.23;2.03;;;;;;;;;;5068657;28;20190;-74
2021/03/04 04:32:21;;;;;;;4.87;1.90;;;;;;;;;;5050802;28;20056;-74
2021/03/04 04:34:46;;;;;;;4.63;2.33;;;;;;;;;;5035712;28;20084;-74
2021/03/04 04:37:12;;;;;;;4.13;1.90;;;;;;;;;;5049828;28;20120;-74
2021/03/04 04:39:37;;;;;;;5.80;2.23;;;;;;;;;;5055577;28;20087;-73
2021/03/04 04:42:03;;;;;;;4.03;2.07;;;;;;;;;;5075343;28;20032;-74
2021/03/04 04:44:28;;;;;;;5.33;2.13;;;;;;;;;;5076731;28;20037;-74
2021/03/04 04:46:54;;;;;;;3.80;2.00;;;;;;;;;;5061218;28;20497;-74
2021/03/04 04:49:19;;;;;;;5.03;2.00;;;;;;;;;;5048586;28;20491;-74
2021/03/04 04:51:44;;;;;;;3.87;2.03;;;;;;;;;;5075141;28;20567;-74
2021/03/04 04:54:10;;;;;;;3.77;1.80;;;;;;;;;;5058025;28;20036;-74
2021/03/04 04:56:35;;;;;;;3.63;1.93;;;;;;;;;;5076285;28;20028;-74
2021/03/04 04:59:01;;;;;;;3.60;1.83;;;;;;;;;;5041614;28;20041;-74
2021/03/04 05:01:26;;;;;;;3.47;2.00;;;;;;;;;;5036373;28;20236;-74
2021/03/04 05:03:51;;;;;;;4.50;2.30;;;;;;;;;;5052057;28;20095;-74
2021/03/04 05:06:17;;;;;;;4.73;2.10;;;;;;;;;;5065227;28;20048;-74
2021/03/04 05:08:42;;;;;;;3.23;1.83;;;;;;;;;;5021690;28;20124;-74
2021/03/04 05:11:07;;;;;;;3.60;2.03;;;;;;;;;;5054575;28;20515;-74
2021/03/04 05:13:33;;;;;;;4.40;2.40;;;;;;;;;;5056069;28;20043;-74
2021/03/04 05:15:58;;;;;;;4.00;2.00;;;;;;;;;;5075015;28;20121;-74
2021/03/04 05:18:23;;;;;;;2.57;1.80;;;;;;;;;;5057755;28;20044;-74
2021/03/04 05:20:49;;;;;;;4.10;2.10;;;;;;;;;;5044026;28;20047;-74
2021/03/04 05:23:15;;;;;;;3.42;1.98;;;;;;;;;;5067860;28;20064;-74
2021/03/04 05:25:41;;;;;;;3.97;1.80;;;;;;;;;;5069903;28;20064;-73
2021/03/04 05:30:52;;;;;;;4.18;2.13;;;;;;;;;;5069182;28;20045;-73
2021/03/04 05:33:18;;;;;;;3.42;1.90;;;;;;;;;;5071042;28;20036;-73
2021/03/04 05:35:43;;;;;;;3.15;1.88;;;;;;;;;;5069150;28;20065;-73
2021/03/04 05:38:09;;;;;;;3.17;1.97;;;;;;;;;;5037653;28;20449;-73
2021/03/04 05:40:34;;;;;;;3.87;2.10;;;;;;;;;;5075186;28;20466;-73
2021/03/04 05:43:00;;;;;;;3.60;1.97;;;;;;;;;;5081924;28;20072;-73
2021/03/04 05:45:25;;;;;;;4.50;2.10;;;;;;;;;;5043332;28;20050;-73
2021/03/04 05:47:50;;;;;;;4.00;2.13;;;;;;;;;;5094105;28;20120;-73
2021/03/04 05:50:20;;;;;;;3.50;1.83;;;;;;;;;;5093752;28;20123;-74
2021/03/04 05:52:48;;;;;;;4.10;2.20;;;;;;;;;;5079543;28;20041;-74
2021/03/04 05:55:14;;;;;;;4.25;2.03;;;;;;;;;;5059247;28;20048;-73
2021/03/04 05:57:39;;;;;;;4.50;2.13;;;;;;;;;;5054021;28;20037;-73
2021/03/04 06:00:05;;;;;;;3.60;1.90;;;;;;;;;;5053931;28;20136;-73
2021/03/04 06:02:31;;;;;;;4.55;2.30;;;;;;;;;;5073055;28;20048;-73
2021/03/04 06:04:56;;;;;;;3.23;1.80;;;;;;;;;;5070026;28;20087;-73
2021/03/04 06:07:21;;;;;;;3.73;1.93;;;;;;;;;;5070981;28;20071;-73
2021/03/04 06:09:47;;;;;;;3.67;2.00;;;;;;;;;;5075923;28;20043;-73
2021/03/04 06:12:12;;;;;;;3.70;2.00;;;;;;;;;;5075137;28;20054;-74
2021/03/04 06:14:38;;;;;;;3.53;1.90;;;;;;;;;;5082663;28;20110;-73
2021/03/04 06:17:13;;;;;;;4.17;2.20;;;;;;;;;;5092749;28;20069;-73
2021/03/04 06:19:39;;;;;;;3.17;1.80;;;;;;;;;;5074196;28;20028;-74
2021/03/04 06:22:04;;;;;;;3.73;2.00;;;;;;;;;;5051423;28;20041;-73
2021/03/04 06:24:30;;;;;;;3.50;2.10;;;;;;;;;;5065132;28;20039;-73
2021/03/04 06:26:55;;;;;;;4.53;2.20;;;;;;;;;;5073505;28;20479;-73
2021/03/04 06:29:22;;;;;;;3.93;2.10;;;;;;;;;;5076080;28;20028;-73
2021/03/04 06:32:04;;;;;;;3.50;2.00;;;;;;;;;;5080676;28;20069;-74
2021/03/04 06:34:29;;;;;;;3.90;2.03;;;;;;;;;;5068763;28;20378;-73
2021/03/04 06:37:05;;;;;;;3.43;2.10;;;;;;;;;;5066791;28;20040;-73
2021/03/04 06:39:51;;;;;;;5.38;2.00;;;;;;;;;;5036073;28;20040;-73
2021/03/04 06:42:17;;;;;;;4.18;1.90;;;;;;;;;;5063334;28;20082;-73
2021/03/04 06:44:46;;;;;;;;;;;;;;;;;;5074863;28;20060;-74
2021/03/04 06:47:18;;;;;;;3.22;1.70;;;;;;;;;;5082548;28;19912;-73
2021/03/04 06:49:43;;;;;;;3.92;2.00;;;;;;;;;;5073013;28;20052;-73
2021/03/04 06:52:09;;;;;;;4.63;2.20;;;;;;;;;;5073123;28;20518;-74
2021/03/04 06:54:34;;;;;;;4.37;2.00;;;;;;;;;;5072886;28;20568;-73
2021/03/04 06:57:10;;;;;;;4.33;2.10;;;;;;;;;;5061771;28;20044;-73
2021/03/04 06:59:54;;;;;;;4.53;1.92;;;;;;;;;;5056302;28;20525;-73
2021/03/04 07:02:29;;;;;;;4.80;2.20;;;;;;;;;;5074156;28;20103;-74
2021/03/04 07:04:55;;;;;;;4.03;2.10;;;;;;;;;;5053260;28;20559;-74
2021/03/04 07:07:24;;;;;;;3.72;1.90;;;;;;;;;;5060984;28;20098;-74
2021/03/04 07:09:49;;;;;;;3.78;2.10;;;;;;;;;;5072730;28;20074;-74
2021/03/04 07:12:15;;;;;;;4.63;2.10;;;;;;;;;;5055990;28;20044;-74
2021/03/04 07:14:40;;;;;;;3.43;1.80;;;;;;;;;;5056578;28;20032;-73
2021/03/04 07:17:06;;;;;;;3.73;1.90;;;;;;;;;;5054733;28;20392;-73
2021/03/04 07:19:31;;;;;;;4.10;2.10;;;;;;;;;;5084670;28;20047;-73
2021/03/04 07:21:56;;;;;;;3.77;2.10;;;;;;;;;;5092860;28;20038;-74
2021/03/04 07:24:22;;;;;;;3.80;2.00;;;;;;;;;;5082899;28;20071;-73
2021/03/04 07:26:47;;;;;;;2.93;1.73;;;;;;;;;;5071384;28;20037;-73
2021/03/04 07:29:13;;;;;;;3.17;1.83;;;;;;;;;;5092412;28;20036;-74
2021/03/04 07:31:42;;;;;;;3.67;2.00;;;;;;;;;;5092926;28;20040;-73
2021/03/04 07:34:14;;;;;;;3.70;2.20;;;;;;;;;;5106012;28;20098;-73
2021/03/04 07:36:39;;;;;;;4.80;1.83;;;;;;;;;;5055841;28;20086;-73
2021/03/04 07:39:05;;;;;;;4.90;2.23;;;;;;;;;;5052787;28;20070;-73
2021/03/04 07:41:38;;;;;;;3.47;1.88;;;;;;;;;;5072043;28;20537;-73
2021/03/04 07:44:04;;;;;;;4.13;2.00;;;;;;;;;;5073716;28;20028;-73
2021/03/04 07:46:39;;;;;;;3.77;1.80;;;;;;;;;;5092253;28;20460;-74
2021/03/04 07:49:06;;;;;;;3.58;1.80;;;;;;;;;;5092278;28;20055;-73
2021/03/04 07:51:44;;;;;;;3.83;2.00;;;;;;;;;;5091299;28;20497;-74
2021/03/04 07:54:10;;;;;;;3.88;1.92;;;;;;;;;;5075021;28;20119;-73
2021/03/04 07:56:35;;;;;;;3.87;2.17;;;;;;;;;;5078371;28;20032;-73
2021/03/04 07:59:21;;;;;;;3.60;1.90;;;;;;;;;;5109039;28;20134;-74
2021/03/04 08:01:59;;;;;;;4.57;2.38;;;;;;;;;;5091384;28;20518;-73
2021/03/04 08:04:28;;;;;;;4.45;2.28;;;;;;;;;;5077190;28;20033;-73
2021/03/04 08:06:54;;;;;;;4.22;2.20;;;;;;;;;;5059493;28;20060;-73
2021/03/04 08:09:30;;;;;;;3.80;2.25;;;;;;;;;;5091496;28;20036;-73
2021/03/04 08:12:11;;;;;;;4.63;2.30;;;;;;;;;;5091891;28;20040;-73
2021/03/04 08:14:38;;;;;;;3.88;2.25;;;;;;;;;;5090336;28;20044;-73
2021/03/04 08:17:04;;;;;;;4.40;2.30;;;;;;;;;;5089929;28;20056;-73
2021/03/04 08:19:29;;;;;;;3.27;1.93;;;;;;;;;;5071617;28;20489;-73
2021/03/04 08:22:03;;;;;;;3.40;2.10;;;;;;;;;;5071832;28;20032;-73
2021/03/04 08:24:28;;;;;;;4.68;2.17;;;;;;;;;;5087736;28;20036;-73
2021/03/04 08:26:57;;;;;;;3.30;2.03;;;;;;;;;;5088475;28;20031;-74
2021/03/04 08:29:23;;;;;;;4.72;2.13;;;;;;;;;;5071349;28;20457;-74
2021/03/04 08:31:48;;;;;;;4.00;1.97;;;;;;;;;;5071657;28;20024;-73
2021/03/04 08:34:13;;;;;;;4.67;2.10;;;;;;;;;;5071625;28;20056;-74
2021/03/04 08:36:43;;;;;;;3.90;1.87;;;;;;;;;;5071587;28;20039;-74
2021/03/04 08:39:08;;;;;;;4.53;2.33;;;;;;;;;;5071513;28;20063;-74
2021/03/04 08:41:34;;;;;;;4.20;2.10;;;;;;;;;;5054726;28;20052;-74
2021/03/04 08:44:28;;;;;;;3.40;2.07;;;;;;;;;;5071488;28;20108;-74
2021/03/04 08:46:53;;;;;;;3.67;1.98;;;;;;;;;;5071517;28;20032;-74
2021/03/04 08:49:20;;;;;;;3.23;2.00;;;;;;;;;;5064135;28;20048;-73
2021/03/04 08:51:45;;;;;;;4.20;2.40;;;;;;;;;;5051402;28;20484;-74
2021/03/04 08:54:27;;;;;;;4.47;2.20;;;;;;;;;;5066938;28;20044;-73
2021/03/04 08:57:01;;;;;;;4.90;2.13;;;;;;;;;;5088126;28;20040;-74
2021/03/04 08:59:26;;;;;;;3.72;2.20;;;;;;;;;;5071288;28;20032;-74
2021/03/04 09:01:53;;;;;;;3.57;1.93;;;;;;;;;;5072215;28;20047;-74
2021/03/04 09:04:22;;;;;;;3.92;2.17;;;;;;;;;;5076261;28;20031;-73
2021/03/04 09:06:47;;;;;;;4.03;2.17;;;;;;;;;;5075147;28;20028;-74
2021/03/04 09:09:26;;;;;;;4.20;2.10;;;;;;;;;;5074791;28;20033;-73
2021/03/04 09:11:52;;;;;;;3.40;2.00;;;;;;;;;;5074888;28;20032;-74
2021/03/04 09:14:17;;;;;;;3.60;2.13;;;;;;;;;;5074855;28;20031;-73
2021/03/04 09:16:43;;;;;;;3.93;2.10;;;;;;;;;;5057861;28;20082;-73
2021/03/04 09:19:10;;;;;;;4.25;2.15;;;;;;;;;;5091589;28;20033;-73
2021/03/04 09:21:35;;;;;;;3.53;2.10;;;;;;;;;;5075870;28;20403;-74
2021/03/04 09:24:01;;;;;;;4.17;2.03;;;;;;;;;;5091609;28;20059;-74
2021/03/04 09:26:30;;;;;;;3.40;1.90;;;;;;;;;;5075143;28;20063;-74
2021/03/04 09:28:55;;;;;;;3.83;2.00;;;;;;;;;;5057724;28;20060;-73
2021/03/04 09:31:22;;;;;;;4.00;2.20;;;;;;;;;;5091554;28;20114;-73
2021/03/04 09:33:55;;;;;;;4.13;2.30;;;;;;;;;;5074670;28;20457;-74
2021/03/04 09:36:20;;;;;;;4.00;2.03;;;;;;;;;;5074506;28;20037;-74
2021/03/04 09:38:50;;;;;;;4.57;2.10;;;;;;;;;;5075702;28;20124;-74
2021/03/04 09:41:16;;;;;;;3.33;2.10;;;;;;;;;;5074351;28;20040;-74
2021/03/04 09:43:46;;;;;;;3.80;2.00;;;;;;;;;;5091241;28;20029;-74
2021/03/04 09:46:13;;;;;;;4.25;2.00;;;;;;;;;;5074293;28;20037;-73
2021/03/04 09:48:39;;;;;;;4.55;2.15;;;;;;;;;;5074217;28;20033;-73
2021/03/04 09:51:05;;;;;;;3.70;2.20;;;;;;;;;;5091138;28;20029;-74
2021/03/04 09:53:30;;;;;;;5.27;2.20;;;;;;;;;;5057435;28;20035;-74
2021/03/04 09:55:56;;;;;;;3.93;2.10;;;;;;;;;;5091130;28;20518;-74
2021/03/04 09:58:24;;;;;;;5.03;2.30;;;;;;;;;;5075207;28;20094;-74
2021/03/04 10:00:59;;;;;;;4.82;2.15;;;;;;;;;;5057491;28;20441;-74
2021/03/04 10:03:38;;;;;;;3.33;1.85;;;;;;;;;;5074180;28;20384;-74
2021/03/04 10:06:05;;;;;;;3.55;2.00;;;;;;;;;;5073914;28;20039;-74
2021/03/04 10:08:38;;;;;;;3.50;2.13;;;;;;;;;;5073886;28;20025;-74
2021/03/04 10:11:03;;;;;;;4.28;2.20;;;;;;;;;;5086241;28;20029;-73
2021/03/04 10:13:29;;;;;;;4.67;1.93;;;;;;;;;;5089436;28;20075;-73
2021/03/04 10:15:54;;;;;;;4.55;2.40;;;;;;;;;;5074275;28;20040;-74
2021/03/04 10:18:20;;;;;;;4.10;2.20;;;;;;;;;;5074765;28;20090;-74
2021/03/04 10:20:46;;;;;;;3.20;1.90;;;;;;;;;;5073672;28;20060;-73
2021/03/04 10:23:12;;;;;;;4.07;2.13;;;;;;;;;;5074967;28;20032;-74
2021/03/04 10:25:37;;;;;;;4.43;2.20;;;;;;;;;;5073846;28;20028;-74
2021/03/04 10:28:03;;;;;;;4.23;1.93;;;;;;;;;;5073583;28;20039;-74
2021/03/04 10:30:30;;;;;;;4.72;2.10;;;;;;;;;;5074480;28;20082;-73
2021/03/04 10:32:56;;;;;;;4.05;2.10;;;;;;;;;;5073264;28;20036;-73
2021/03/04 10:35:22;;;;;;;4.00;2.00;;;;;;;;;;5073397;28;20074;-74
2021/03/04 10:37:47;;;;;;;4.72;2.50;;;;;;;;;;5090371;28;20107;-74
2021/03/04 10:40:14;;;;;;;3.67;2.10;;;;;;;;;;5060632;28;20131;-73
2021/03/04 10:42:39;;;;;;;;;;;;;;;;;;5093824;28;20028;-74
2021/03/04 10:45:06;;;;;;;3.80;1.90;;;;;;;;;;5092685;28;20385;-73
2021/03/04 10:47:31;;;;;;;3.60;2.10;;;;;;;;;;5085383;28;20024;-73
2021/03/04 10:49:56;;;;;;;3.73;1.97;;;;;;;;;;5077381;28;20129;-73
2021/03/04 10:52:22;;;;;;;3.73;2.07;;;;;;;;;;5066312;28;20029;-74
2021/03/04 10:54:48;;;;;;;4.22;2.10;;;;;;;;;;5100076;28;20040;-74
2021/03/04 10:57:13;;;;;;;5.27;2.07;;;;;;;;;;5082005;28;20491;-73
2021/03/04 10:59:38;;;;;;;3.80;1.87;;;;;;;;;;5074460;28;20107;-74
2021/03/04 11:02:04;;;;;;;4.13;2.10;;;;;;;;;;5084578;28;20166;-73
2021/03/04 11:04:29;;;;;;;3.80;2.10;;;;;;;;;;5089794;28;20047;-73
2021/03/04 11:06:54;;;;;;;4.10;2.00;;;;;;;;;;5078406;28;20040;-73
2021/03/04 11:09:20;;;;;;;3.83;2.20;;;;;;;;;;5071781;28;20120;-73
2021/03/04 11:11:45;;;;;;;3.50;2.13;;;;;;;;;;5063223;28;20041;-73
2021/03/04 11:14:10;;;;;;;4.73;2.07;;;;;;;;;;5071054;28;20040;-73
2021/03/04 11:16:36;;;;;;;3.40;2.03;;;;;;;;;;5079554;28;20072;-73
2021/03/04 11:19:03;;;;;;;3.83;2.00;;;;;;;;;;5055795;28;20115;-74
2021/03/04 11:21:28;;;;;;;4.13;2.13;;;;;;;;;;5086546;28;20032;-73
2021/03/04 11:23:54;;;;;;;3.77;2.03;;;;;;;;;;5092732;28;20448;-74
2021/03/04 11:26:19;;;;;;;3.23;1.90;;;;;;;;;;5093711;28;20086;-73
2021/03/04 11:28:44;;;;;;;5.70;2.17;;;;;;;;;;5077148;28;20082;-74
2021/03/04 11:31:10;;;;;;;4.50;2.27;;;;;;;;;;5092395;28;20060;-74
2021/03/04 11:33:35;;;;;;;3.13;1.93;;;;;;;;;;5076191;28;20067;-73
2021/03/04 11:36:00;;;;;;;4.07;2.07;;;;;;;;;;5072665;28;20146;-73
2021/03/04 11:38:26;;;;;;;4.10;2.10;;;;;;;;;;5074396;28;20085;-74
2021/03/04 11:40:51;;;;;;;3.40;1.90;;;;;;;;;;5073342;28;20090;-74
2021/03/04 11:43:16;;;;;;;3.43;1.93;;;;;;;;;;5072125;28;20107;-74
2021/03/04 11:45:42;;;;;;;3.77;1.97;;;;;;;;;;5084391;28;20094;-73
2021/03/04 11:48:07;;;;;;;4.00;2.07;;;;;;;;;;5057208;28;20067;-73
2021/03/04 11:50:33;;;;;;;4.17;2.13;;;;;;;;;;5073087;28;20035;-73
2021/03/04 11:52:58;;;;;;;4.10;2.10;;;;;;;;;;5072235;28;20087;-74
2021/03/04 11:55:23;;;;;;;4.07;2.07;;;;;;;;;;5066432;28;20025;-73
2021/03/04 11:57:49;;;;;;;6.20;2.50;;;;;;;;;;5103949;28;20063;-74
2021/03/04 12:00:15;;;;;;;3.90;2.03;;;;;;;;;;5071929;28;20063;-73
2021/03/04 12:02:40;;;;;;;4.00;2.10;;;;;;;;;;5071946;28;20028;-74
2021/03/04 12:07:40;;;;;;;3.50;1.95;;;;;;;;;;5050827;28;20056;-76
2021/03/04 12:10:05;;;;;;;3.77;2.00;;;;;;;;;;5033262;28;20534;-76
2021/03/04 12:12:31;;;;;;;4.40;2.00;;;;;;;;;;5030870;28;20048;-76
2021/03/04 12:14:58;;;;;;;3.90;2.03;;;;;;;;;;5054664;28;20280;-77
2021/03/04 12:17:23;;;;;;;4.45;2.08;;;;;;;;;;5035419;28;20076;-77
2021/03/04 12:19:49;;;;;;;3.23;1.83;;;;;;;;;;5026829;28;20061;-77
2021/03/04 12:22:14;;;;;;;4.60;2.03;;;;;;;;;;5015491;28;20091;-77
2021/03/04 12:24:39;;;;;;;4.73;1.87;;;;;;;;;;5034838;28;20069;-77
2021/03/04 12:27:06;;;;;;;3.60;1.97;;;;;;;;;;5025087;28;20061;-77
2021/03/04 12:29:31;;;;;;;3.88;1.90;;;;;;;;;;5004255;28;20503;-77
2021/03/04 12:31:57;;;;;;;4.03;2.10;;;;;;;;;;5036375;28;20025;-77
2021/03/04 12:34:22;;;;;;;3.73;1.90;;;;;;;;;;5037306;28;20056;-77
2021/03/04 12:36:47;;;;;;;3.77;2.00;;;;;;;;;;5031415;28;20049;-76
2021/03/04 12:39:13;;;;;;;4.63;2.20;;;;;;;;;;5005166;28;20466;-76
2021/03/04 12:41:38;;;;;;;4.73;2.03;;;;;;;;;;5029294;28;20034;-76
2021/03/04 12:44:04;;;;;;;3.43;1.80;;;;;;;;;;5035985;28;20032;-77
2021/03/04 12:46:30;;;;;;;3.88;1.95;;;;;;;;;;5035423;28;20025;-77
2021/03/04 12:48:55;;;;;;;3.77;1.90;;;;;;;;;;5002874;28;20126;-77
2021/03/04 12:51:20;;;;;;;4.87;2.03;;;;;;;;;;5012787;28;20075;-77
2021/03/04 12:53:47;;;;;;;3.63;2.00;;;;;;;;;;5038774;28;20079;-77
2021/03/04 12:56:12;;;;;;;5.05;2.17;;;;;;;;;;5036620;28;20037;-77
2021/03/04 12:58:38;;;;;;;4.67;2.30;;;;;;;;;;5018709;28;20038;-77
2021/03/04 13:01:03;;;;;;;4.00;2.13;;;;;;;;;;5020261;28;20061;-77
2021/03/04 13:03:29;;;;;;;3.53;1.83;;;;;;;;;;5002265;28;20045;-77
2021/03/04 13:05:54;;;;;;;3.60;1.90;;;;;;;;;;5046375;28;20541;-77
2021/03/04 13:08:19;;;;;;;4.20;2.00;;;;;;;;;;5022226;28;20124;-77
2021/03/04 13:10:45;;;;;;;4.10;2.07;;;;;;;;;;5012862;28;20030;-76
2021/03/04 13:13:10;;;;;;;3.97;2.00;;;;;;;;;;5035373;28;20067;-76
2021/03/04 13:15:35;;;;;;;4.27;2.30;;;;;;;;;;5002255;28;20043;-77
2021/03/04 13:18:01;;;;;;;4.50;2.03;;;;;;;;;;5002052;28;20490;-77
2021/03/04 13:20:26;;;;;;;3.77;1.90;;;;;;;;;;5018579;28;20501;-77
2021/03/04 13:22:51;;;;;;;3.93;2.00;;;;;;;;;;5032502;28;20059;-77
2021/03/04 13:25:17;;;;;;;5.00;2.23;;;;;;;;;;5023102;28;20060;-77
2021/03/04 13:27:42;;;;;;;5.30;2.30;;;;;;;;;;5036695;28;20067;-77
2021/03/04 13:30:08;;;;;;;4.80;1.97;;;;;;;;;;5011576;28;20056;-77
2021/03/04 13:32:33;;;;;;;5.50;1.90;;;;;;;;;;5014425;28;20056;-77
2021/03/04 13:34:58;;;;;;;5.03;2.23;;;;;;;;;;5021203;28;20115;-75
2021/03/04 13:37:24;;;;;;;5.70;2.17;;;;;;;;;;5036338;28;20080;-76
2021/03/04 13:39:49;;;;;;;5.17;2.27;;;;;;;;;;5026769;28;20068;-76
2021/03/04 13:42:15;;;;;;;4.23;2.00;;;;;;;;;;5040996;28;20071;-76
2021/03/04 13:44:40;;;;;;;3.20;1.90;;;;;;;;;;5019386;28;20040;-77
2021/03/04 13:47:06;;;;;;;3.87;2.20;;;;;;;;;;5002112;28;20029;-76
2021/03/04 13:49:31;;;;;;;2.80;1.70;;;;;;;;;;5016909;28;20083;-76
2021/03/04 13:51:56;;;;;;;4.90;2.13;;;;;;;;;;5017267;28;20068;-77
2021/03/04 13:54:22;;;;;;;4.43;2.30;;;;;;;;;;5019503;28;20056;-76
2021/03/04 13:56:47;;;;;;;4.17;2.20;;;;;;;;;;5015786;28;20041;-76
2021/03/04 13:59:12;;;;;;;5.27;2.20;;;;;;;;;;5022356;28;20076;-77
2021/03/04 14:01:38;;;;;;;4.30;2.00;;;;;;;;;;5012532;28;20032;-76
2021/03/04 14:04:03;;;;;;;4.03;1.93;;;;;;;;;;5034653;28;20041;-76
2021/03/04 14:06:29;;;;;;;5.13;2.30;;;;;;;;;;5017799;28;20129;-76
2021/03/04 14:08:55;;;;;;;7.20;2.40;;;;;;;;;;5017781;28;20044;-77
2021/03/04 14:11:22;;;;;;;3.73;2.17;;;;;;;;;;5030248;28;20559;-76
2021/03/04 14:13:47;;;;;;;4.75;1.90;;;;;;;;;;5005409;28;20119;-76
2021/03/04 14:16:13;;;;;;;3.80;2.10;;;;;;;;;;5021263;28;20060;-77
2021/03/04 14:18:39;;;;;;;3.87;2.03;;;;;;;;;;5037737;28;20110;-77
2021/03/04 14:21:04;;;;;;;4.53;1.90;;;;;;;;;;5037592;28;20303;-77
2021/03/04 14:23:29;;;;;;;5.13;2.10;;;;;;;;;;5003016;28;20033;-76
2021/03/04 14:25:55;;;;;;;3.67;1.90;;;;;;;;;;5001011;28;20068;-76
2021/03/04 14:28:20;;;;;;;4.20;2.00;;;;;;;;;;5018786;28;20056;-76
2021/03/04 14:30:45;;;;;;;4.83;2.00;;;;;;;;;;5037733;28;20025;-78
2021/03/04 14:33:11;;;;;;;4.57;2.07;;;;;;;;;;5040572;28;20067;-77
2021/03/04 14:35:36;;;;;;;4.73;2.13;;;;;;;;;;5039692;28;20071;-76
2021/03/04 14:38:01;;;;;;;3.53;1.90;;;;;;;;;;5020287;28;20515;-77
2021/03/04 14:40:27;;;;;;;3.97;2.27;;;;;;;;;;5036773;28;20035;-77
2021/03/04 14:42:52;;;;;;;3.80;2.03;;;;;;;;;;5036842;28;20068;-76
2021/03/04 14:45:17;;;;;;;3.80;2.03;;;;;;;;;;5036607;28;20041;-76